Time;durP1;ratioP1;P1;durP2;ratioP2;P2;SDS_P1;SDS_P2;PMS_P1;PMS_P2;Temp;Humidity;BMP_temperature;BMP_pressure;BME280_temperature;BME280_humidity;BME280_pressure;Samples;Min_cycle;Max_cycle;Signal;HPM_P1;HPM_P2
2022/09/14 00:01:54;;;;;;;;;;;;;;;24.87;35.48;100622.84;104455;1311;61328;-85
2022/09/14 00:04:22;;;;;;;;;;;;;;;24.87;35.49;100624.15;104467;1311;61328;-84
2022/09/14 00:07:11;;;;;;;;;;;;;;;24.86;35.52;100621.48;104409;1311;74961;-82
2022/09/14 00:09:36;;;;;;;;;;;;;;;24.86;35.41;100617.50;103852;1316;74871;-84
2022/09/14 00:12:02;;;;;;;;;;;;;;;24.87;35.47;100625.58;103672;1319;61304;-83
2022/09/14 00:14:27;;;;;;;;;;;;;;;24.86;35.48;100628.67;103641;1319;61298;-84
2022/09/14 00:16:53;;;;;;;;;;;;;;;24.86;35.42;100635.87;103447;1319;61360;-85
2022/09/14 00:19:19;;;;;;;;;;;;;;;24.86;35.51;100637.89;103687;1319;61661;-84
2022/09/14 00:21:46;;;;;;;;;;;;;;;24.86;35.63;100640.05;103486;1319;74796;-85
2022/09/14 00:24:11;;;;;;;;;;;;;;;24.86;35.51;100644.02;103448;1319;61416;-83
2022/09/14 00:26:37;;;;;;;;;;;;;;;24.85;35.54;100642.08;103646;1319;61322;-83
2022/09/14 00:29:03;;;;;;;;;;;;;;;24.86;35.53;100639.34;103435;1319;60117;-83
2022/09/14 00:31:30;;;;;;;;;;;;;;;24.85;35.45;100642.41;103441;1320;61386;-83
2022/09/14 00:33:55;;;;;;;;;;;;;;;24.85;35.44;100636.88;103677;1319;61186;-84
2022/09/14 00:36:23;;;;;;;;;;;;;;;24.85;35.22;100632.61;103777;1318;61361;-83
2022/09/14 00:38:48;;;;;;;;;;;;;;;24.85;35.63;100630.08;103664;1319;61678;-86
2022/09/14 00:41:15;;;;;;;;;;;;;;;24.84;35.34;100631.93;103720;1318;61391;-83
2022/09/14 00:43:52;;;;;;;;;;;;;;;24.84;35.54;100631.92;103415;1319;61441;-83
2022/09/14 00:46:18;;;;;;;;;;;;;;;24.84;35.67;100632.46;103604;1311;61184;-84
2022/09/14 00:48:43;;;;;;;;;;;;;;;24.84;35.52;100634.69;104349;1311;61373;-84
2022/09/14 00:51:32;;;;;;;;;;;;;;;24.84;35.57;100628.21;104425;1311;61301;-83
2022/09/14 00:53:59;;;;;;;;;;;;;;;24.83;35.49;100632.15;103852;1317;61214;-81
2022/09/14 00:56:25;;;;;;;;;;;;;;;24.83;35.54;100630.77;103891;1317;61596;-84
2022/09/14 00:58:52;;;;;;;;;;;;;;;24.83;35.57;100631.13;103872;1317;59810;-83
2022/09/14 01:01:17;;;;;;;;;;;;;;;24.83;35.55;100630.02;103862;1317;61721;-83
2022/09/14 01:03:43;;;;;;;;;;;;;;;24.83;35.51;100627.05;103741;1317;61437;-83
2022/09/14 01:06:08;;;;;;;;;;;;;;;24.82;35.56;100632.64;103875;1317;61217;-86
2022/09/14 01:08:41;;;;;;;;;;;;;;;24.82;35.65;100635.34;103850;1317;61273;-84
2022/09/14 01:11:09;;;;;;;;;;;;;;;24.83;35.62;100632.95;103993;1317;74543;-85
2022/09/14 01:13:38;;;;;;;;;;;;;;;24.83;35.58;100629.75;103874;1317;61192;-84
2022/09/14 01:16:07;;;;;;;;;;;;;;;24.82;35.50;100624.73;103851;1317;61163;-83
2022/09/14 01:18:37;;;;;;;;;;;;;;;24.82;35.55;100625.52;103881;1317;74103;-83
2022/09/14 01:21:09;;;;;;;;;;;;;;;24.81;35.53;100621.02;103845;1317;73832;-83
2022/09/14 01:23:53;;;;;;;;;;;;;;;24.81;35.56;100615.64;103885;1317;61255;-86
2022/09/14 01:26:40;;;;;;;;;;;;;;;24.81;35.62;100612.25;103871;1317;61321;-84
2022/09/14 01:29:06;;;;;;;;;;;;;;;24.81;35.56;100614.41;103833;1317;72952;-85
2022/09/14 01:31:44;;;;;;;;;;;;;;;24.81;35.51;100618.57;104166;1311;61303;-85
2022/09/14 01:34:15;;;;;;;;;;;;;;;24.80;35.50;100613.57;104441;1311;61113;-85
2022/09/14 01:36:41;;;;;;;;;;;;;;;24.80;35.65;100607.45;104400;1311;61939;-82
2022/09/14 01:39:07;;;;;;;;;;;;;;;24.80;35.51;100599.75;104387;1311;61223;-83
2022/09/14 01:41:32;;;;;;;;;;;;;;;24.80;35.56;100592.59;104399;1311;61283;-86
2022/09/14 01:44:13;;;;;;;;;;;;;;;24.79;35.60;100587.94;104390;1311;61273;-84
2022/09/14 01:46:39;;;;;;;;;;;;;;;24.79;35.59;100590.66;104392;1311;61186;-83
2022/09/14 01:49:11;;;;;;;;;;;;;;;24.79;35.61;100591.94;104380;1311;72631;-83
2022/09/14 01:51:55;;;;;;;;;;;;;;;24.78;35.53;100593.58;104425;1311;75801;-85
2022/09/14 01:54:26;;;;;;;;;;;;;;;24.79;35.59;100604.73;104415;1311;61402;-84
2022/09/14 01:56:55;;;;;;;;;;;;;;;24.79;35.49;100604.00;104461;1311;61276;-81
2022/09/14 01:59:22;;;;;;;;;;;;;;;24.79;35.66;100608.68;104438;1311;72557;-86
2022/09/14 02:01:59;;;;;;;;;;;;;;;24.78;35.65;100607.63;104389;1311;75552;-87
2022/09/14 02:04:30;;;;;;;;;;;;;;;24.78;35.64;100611.96;104445;1311;61251;-84
2022/09/14 02:06:55;;;;;;;;;;;;;;;24.78;35.65;100618.41;104423;1311;61303;-83
2022/09/14 02:09:25;;;;;;;;;;;;;;;24.78;35.58;100612.54;104408;1311;61415;-84
2022/09/14 02:11:51;;;;;;;;;;;;;;;24.77;35.63;100608.08;104425;1310;74665;-83
2022/09/14 02:14:16;;;;;;;;;;;;;;;24.77;35.63;100605.54;104445;1311;61317;-84
2022/09/14 02:16:44;;;;;;;;;;;;;;;24.77;35.65;100601.25;104398;1311;59935;-83
2022/09/14 02:19:11;;;;;;;;;;;;;;;24.78;35.71;100601.23;104384;1311;74324;-84
2022/09/14 02:21:37;;;;;;;;;;;;;;;24.77;35.72;100603.80;104456;1311;61185;-85
2022/09/14 02:24:03;;;;;;;;;;;;;;;24.77;35.74;100608.48;104406;1312;61381;-85
2022/09/14 02:26:29;;;;;;;;;;;;;;;24.76;35.70;100609.91;104443;1311;61283;-83
2022/09/14 02:28:55;;;;;;;;;;;;;;;24.76;35.73;100611.39;104402;1311;59392;-83
2022/09/14 02:31:39;;;;;;;;;;;;;;;24.76;35.64;100613.73;104383;1311;61191;-84
2022/09/14 02:34:05;;;;;;;;;;;;;;;24.76;35.63;100613.61;104415;1311;61231;-84
2022/09/14 02:36:37;;;;;;;;;;;;;;;24.76;35.69;100609.64;104404;1311;61253;-84
2022/09/14 02:39:16;;;;;;;;;;;;;;;24.75;35.69;100612.00;104410;1311;73257;-83
2022/09/14 02:41:49;;;;;;;;;;;;;;;24.75;35.70;100611.85;104394;1311;73899;-84
2022/09/14 02:44:20;;;;;;;;;;;;;;;24.75;35.68;100612.02;104403;1311;61273;-83
2022/09/14 02:46:49;;;;;;;;;;;;;;;24.75;35.65;100613.65;104423;1311;61629;-83
2022/09/14 02:49:40;;;;;;;;;;;;;;;24.75;35.78;100611.52;104438;1311;73650;-83
2022/09/14 02:52:09;;;;;;;;;;;;;;;24.74;35.75;100604.02;104416;1311;74985;-84
2022/09/14 02:54:39;;;;;;;;;;;;;;;24.74;35.72;100605.43;104424;1311;61540;-84
2022/09/14 02:57:07;;;;;;;;;;;;;;;24.74;35.74;100609.93;104449;1311;61541;-85
2022/09/14 02:59:32;;;;;;;;;;;;;;;24.74;35.81;100603.63;104407;1311;72694;-80
2022/09/14 03:01:58;;;;;;;;;;;;;;;24.74;35.61;100599.17;104435;1311;61485;-83
2022/09/14 03:04:24;;;;;;;;;;;;;;;24.74;35.74;100597.35;104415;1311;61416;-84
2022/09/14 03:06:49;;;;;;;;;;;;;;;24.74;35.71;100599.70;104428;1312;61384;-84
2022/09/14 03:09:15;;;;;;;;;;;;;;;24.74;35.78;100596.84;104394;1311;61334;-84
2022/09/14 03:11:41;;;;;;;;;;;;;;;24.73;35.84;100594.73;104445;1311;61372;-84
2022/09/14 03:14:06;;;;;;;;;;;;;;;24.73;35.83;100596.52;104454;1310;74168;-86
2022/09/14 03:16:35;;;;;;;;;;;;;;;24.73;35.82;100598.89;104395;1311;61394;-84
2022/09/14 03:19:00;;;;;;;;;;;;;;;24.73;35.79;100603.55;104433;1311;61334;-82
2022/09/14 03:21:26;;;;;;;;;;;;;;;24.73;35.77;100608.64;104423;1311;61309;-84
2022/09/14 03:23:54;;;;;;;;;;;;;;;24.72;35.84;100615.34;104424;1311;61412;-83
2022/09/14 03:26:20;;;;;;;;;;;;;;;24.73;35.87;100616.77;104404;1311;61395;-85
2022/09/14 03:28:49;;;;;;;;;;;;;;;24.73;35.86;100617.30;104469;1311;61353;-83
2022/09/14 03:31:15;;;;;;;;;;;;;;;24.73;35.89;100616.97;104439;1311;74144;-83
2022/09/14 03:33:40;;;;;;;;;;;;;;;24.73;35.89;100621.79;104395;1311;61447;-86
2022/09/14 03:36:10;;;;;;;;;;;;;;;24.72;35.86;100621.67;104401;1311;61303;-85
2022/09/14 03:38:35;;;;;;;;;;;;;;;24.71;35.92;100622.32;104455;1311;61182;-82
2022/09/14 03:41:06;;;;;;;;;;;;;;;24.69;35.90;100625.72;104462;1311;61347;-82
2022/09/14 03:43:32;;;;;;;;;;;;;;;24.67;35.84;100629.71;104423;1311;73532;-84
2022/09/14 03:45:58;;;;;;;;;;;;;;;24.64;35.96;100637.16;104404;1311;61296;-85
2022/09/14 03:48:23;;;;;;;;;;;;;;;24.60;35.94;100643.76;104389;1311;61418;-84
2022/09/14 03:50:50;;;;;;;;;;;;;;;24.58;35.86;100651.52;104411;1311;61148;-84
2022/09/14 03:53:15;;;;;;;;;;;;;;;24.55;35.86;100648.13;104415;1311;61152;-87
2022/09/14 03:55:41;;;;;;;;;;;;;;;24.53;35.92;100642.92;104433;1311;61306;-85
2022/09/14 03:58:06;;;;;;;;;;;;;;;24.51;35.85;100645.13;104449;1311;61367;-84
2022/09/14 04:00:33;;;;;;;;;;;;;;;24.49;35.89;100643.88;104444;1311;61414;-84
2022/09/14 04:02:59;;;;;;;;;;;;;;;24.47;35.86;100645.30;104407;1311;59346;-85
2022/09/14 04:05:24;;;;;;;;;;;;;;;24.43;35.72;100650.42;104394;1311;61317;-83
2022/09/14 04:07:50;;;;;;;;;;;;;;;24.40;35.68;100647.89;104449;1311;61393;-83
2022/09/14 04:10:16;;;;;;;;;;;;;;;24.36;35.67;100646.03;104432;1312;61412;-83
2022/09/14 04:12:41;;;;;;;;;;;;;;;24.33;35.70;100645.94;104501;1311;61390;-84
2022/09/14 04:15:07;;;;;;;;;;;;;;;24.30;35.59;100645.14;104441;1311;72596;-84
2022/09/14 04:17:32;;;;;;;;;;;;;;;24.27;35.58;100641.95;104435;1310;61275;-83
2022/09/14 04:20:00;;;;;;;;;;;;;;;24.25;35.57;100647.14;104421;1311;61328;-84
2022/09/14 04:22:26;;;;;;;;;;;;;;;24.22;35.49;100652.44;104384;1311;61380;-83
2022/09/14 04:24:52;;;;;;;;;;;;;;;24.20;35.55;100652.63;104282;1309;61277;-83
2022/09/14 04:27:18;;;;;;;;;;;;;;;24.18;35.60;100656.80;104178;1311;61225;-84
2022/09/14 04:29:44;;;;;;;;;;;;;;;24.16;35.54;100658.20;104179;1311;61375;-82
2022/09/14 04:32:09;;;;;;;;;;;;;;;24.15;35.67;100661.17;104260;1309;59335;-83
2022/09/14 04:34:35;;;;;;;;;;;;;;;24.14;35.75;100653.89;104237;1311;61355;-82
2022/09/14 04:37:00;;;;;;;;;;;;;;;24.15;35.78;100657.27;104302;1309;74031;-83
2022/09/14 04:39:26;;;;;;;;;;;;;;;24.15;35.80;100658.16;104343;1309;61279;-83
2022/09/14 04:41:51;;;;;;;;;;;;;;;24.14;35.88;100658.36;104353;1311;61278;-85
2022/09/14 04:44:17;;;;;;;;;;;;;;;24.14;35.91;100656.45;104223;1311;61453;-83
2022/09/14 04:46:42;;;;;;;;;;;;;;;24.12;35.91;100653.34;104222;1311;61396;-82
2022/09/14 04:49:11;;;;;;;;;;;;;;;24.12;35.85;100662.39;104115;1311;74055;-85
2022/09/14 04:51:37;;;;;;;;;;;;;;;24.10;35.94;100665.73;104190;1309;73785;-84
2022/09/14 04:54:03;;;;;;;;;;;;;;;24.08;35.95;100663.71;104172;1310;61718;-82
2022/09/14 04:56:32;;;;;;;;;;;;;;;24.07;35.99;100666.50;103903;1312;61192;-84
2022/09/14 04:58:58;;;;;;;;;;;;;;;24.06;35.96;100660.11;104135;1311;73855;-82
2022/09/14 05:01:25;;;;;;;;;;;;;;;24.05;35.92;100657.73;104089;1312;61233;-83
2022/09/14 05:03:51;;;;;;;;;;;;;;;24.01;35.88;100657.17;103986;1310;61297;-82
2022/09/14 05:06:42;;;;;;;;;;;;;;;23.99;36.08;100650.48;103516;1309;61352;-84
2022/09/14 05:09:13;;;;;;;;;;;;;;;24.02;36.02;100652.43;103788;1309;73911;-85
2022/09/14 05:11:39;;;;;;;;;;;;;;;24.03;35.99;100651.95;104315;1308;73752;-84
2022/09/14 05:14:05;;;;;;;;;;;;;;;24.04;35.99;100651.87;104323;1309;61300;-84
2022/09/14 05:16:34;;;;;;;;;;;;;;;24.05;35.93;100656.80;104448;1306;61397;-83
2022/09/14 05:19:00;;;;;;;;;;;;;;;24.03;35.91;100656.41;104241;1308;72876;-83
2022/09/14 05:21:26;;;;;;;;;;;;;;;24.01;35.87;100652.66;104480;1307;76216;-83
2022/09/14 05:23:53;;;;;;;;;;;;;;;24.02;35.89;100649.40;104256;1309;59385;-83
2022/09/14 05:26:18;;;;;;;;;;;;;;;24.02;35.84;100652.75;104220;1308;61307;-84
2022/09/14 05:28:48;;;;;;;;;;;;;;;24.03;35.87;100652.17;104221;1309;61318;-83
2022/09/14 05:31:15;;;;;;;;;;;;;;;24.03;35.85;100653.75;104424;1309;77037;-85
2022/09/14 05:33:42;;;;;;;;;;;;;;;24.04;35.89;100655.48;105281;1307;61865;-82
2022/09/14 05:36:07;;;;;;;;;;;;;;;24.05;35.95;100653.56;103748;1308;61333;-85
2022/09/14 05:38:33;;;;;;;;;;;;;;;24.06;35.89;100656.20;103903;1309;61324;-83
2022/09/14 05:40:59;;;;;;;;;;;;;;;24.07;36.07;100657.94;104172;1309;61262;-83
2022/09/14 05:43:25;;;;;;;;;;;;;;;24.08;36.26;100660.51;104081;1307;61276;-83
2022/09/14 05:45:50;;;;;;;;;;;;;;;24.09;36.30;100664.50;103959;1310;61385;-83
2022/09/14 05:48:16;;;;;;;;;;;;;;;24.10;36.15;100665.17;104203;1307;61137;-83
2022/09/14 05:50:41;;;;;;;;;;;;;;;24.11;36.26;100669.23;104215;1308;61358;-82
2022/09/14 05:53:07;;;;;;;;;;;;;;;24.11;36.12;100671.04;103741;1309;61326;-82
2022/09/14 05:55:32;;;;;;;;;;;;;;;24.05;36.16;100678.79;103633;1308;61243;-85
2022/09/14 05:57:58;;;;;;;;;;;;;;;23.95;36.07;100677.27;103571;1308;61762;-83
2022/09/14 06:00:24;;;;;;;;;;;;;;;23.91;36.19;100678.48;103840;1306;61364;-82
2022/09/14 06:02:50;;;;;;;;;;;;;;;23.87;36.26;100685.98;103562;1309;61316;-83
2022/09/14 06:05:16;;;;;;;;;;;;;;;23.81;36.17;100684.70;103567;1308;75052;-82
2022/09/14 06:07:42;;;;;;;;;;;;;;;23.79;36.33;100686.35;103637;1308;61430;-83
2022/09/14 06:10:07;;;;;;;;;;;;;;;23.80;36.21;100689.66;103765;1308;61279;-83
2022/09/14 06:12:32;;;;;;;;;;;;;;;23.83;36.29;100689.20;103724;1309;61486;-84
2022/09/14 06:14:58;;;;;;;;;;;;;;;23.87;36.21;100691.79;103790;1309;61321;-81
2022/09/14 06:17:25;;;;;;;;;;;;;;;23.89;36.24;100693.72;103681;1310;74883;-83
2022/09/14 06:19:50;;;;;;;;;;;;;;;23.93;36.31;100697.92;103853;1308;61419;-82
2022/09/14 06:22:16;;;;;;;;;;;;;;;23.96;36.25;100697.89;103670;1310;61289;-83
2022/09/14 06:24:42;;;;;;;;;;;;;;;23.98;36.20;100704.51;103754;1309;61291;-82
2022/09/14 06:27:11;;;;;;;;;;;;;;;24.01;36.26;100704.81;103693;1309;61416;-82
2022/09/14 06:29:37;;;;;;;;;;;;;;;24.04;36.25;100704.58;103858;1309;61521;-83
2022/09/14 06:32:02;;;;;;;;;;;;;;;24.06;36.15;100704.61;103739;1311;61363;-83
2022/09/14 06:34:29;;;;;;;;;;;;;;;24.08;36.15;100704.21;103674;1308;61270;-82
2022/09/14 06:36:55;;;;;;;;;;;;;;;24.10;36.18;100702.78;105182;1309;60907;-83
2022/09/14 06:39:21;;;;;;;;;;;;;;;24.12;36.17;100701.70;104060;1311;61316;-83
2022/09/14 06:41:46;;;;;;;;;;;;;;;24.08;36.30;100703.30;103801;1308;61365;-84
2022/09/14 06:44:12;;;;;;;;;;;;;;;24.06;36.28;100702.42;103680;1309;61401;-82
2022/09/14 06:46:38;;;;;;;;;;;;;;;24.04;36.27;100703.11;103792;1310;61278;-84
2022/09/14 06:49:08;;;;;;;;;;;;;;;24.05;36.28;100698.89;103770;1309;75640;-83
2022/09/14 06:51:35;;;;;;;;;;;;;;;24.07;36.26;100701.28;103435;1308;61641;-82
2022/09/14 06:54:00;;;;;;;;;;;;;;;24.06;36.43;100695.34;103355;1308;61230;-82
2022/09/14 06:56:39;;;;;;;;;;;;;;;24.10;36.48;100692.54;103481;1308;61364;-83
2022/09/14 06:59:05;;;;;;;;;;;;;;;24.14;36.58;100693.29;103513;1309;74862;-79
2022/09/14 07:01:31;;;;;;;;;;;;;;;24.15;36.61;100695.71;103410;1311;61254;-82
2022/09/14 07:03:57;;;;;;;;;;;;;;;24.10;36.65;100693.98;103064;1314;61313;-82
2022/09/14 07:06:23;;;;;;;;;;;;;;;23.99;36.74;100690.05;103410;1311;61352;-82
2022/09/14 07:08:50;;;;;;;;;;;;;;;23.97;36.79;100694.77;103355;1311;61423;-84
2022/09/14 07:11:18;;;;;;;;;;;;;;;23.99;36.89;100693.13;103356;1311;61377;-84
2022/09/14 07:13:44;;;;;;;;;;;;;;;23.99;36.83;100692.26;103360;1311;61309;-84
2022/09/14 07:16:11;;;;;;;;;;;;;;;23.95;36.79;100692.36;103275;1311;61474;-83
2022/09/14 07:18:36;;;;;;;;;;;;;;;23.97;36.86;100690.05;103485;1311;61412;-83
2022/09/14 07:21:09;;;;;;;;;;;;;;;24.02;36.75;100688.56;103380;1313;61345;-85
2022/09/14 07:23:35;;;;;;;;;;;;;;;24.05;36.82;100691.67;103483;1311;61295;-83
2022/09/14 07:26:01;;;;;;;;;;;;;;;24.08;36.72;100691.61;104900;1313;60114;-84
2022/09/14 07:28:27;;;;;;;;;;;;;;;24.08;36.65;100688.35;104350;1311;59480;-83
2022/09/14 07:30:52;;;;;;;;;;;;;;;24.06;36.67;100689.05;103449;1311;61258;-84
2022/09/14 07:33:18;;;;;;;;;;;;;;;24.05;36.68;100693.33;103597;1308;61291;-84
2022/09/14 07:35:43;;;;;;;;;;;;;;;24.04;36.69;100687.84;103747;1308;61326;-83
2022/09/14 07:38:09;;;;;;;;;;;;;;;24.07;36.67;100688.32;103723;1310;61360;-83
2022/09/14 07:40:34;;;;;;;;;;;;;;;24.09;36.75;100686.52;103732;1308;61250;-82
2022/09/14 07:43:00;;;;;;;;;;;;;;;23.97;36.37;100684.08;103683;1309;61286;-82
2022/09/14 07:45:26;;;;;;;;;;;;;;;23.89;36.57;100682.80;103691;1308;61264;-83
2022/09/14 07:47:52;;;;;;;;;;;;;;;23.89;36.48;100684.61;103790;1310;61329;-83
2022/09/14 07:50:18;;;;;;;;;;;;;;;23.78;36.43;100684.94;103737;1309;61409;-82
2022/09/14 07:52:44;;;;;;;;;;;;;;;23.73;36.52;100683.59;103919;1310;61269;-84
2022/09/14 07:55:11;;;;;;;;;;;;;;;23.78;36.55;100684.44;103863;1308;61340;-82
2022/09/14 07:57:37;;;;;;;;;;;;;;;23.80;36.47;100687.15;103874;1309;61295;-82
2022/09/14 08:00:04;;;;;;;;;;;;;;;23.84;36.58;100685.94;103682;1311;73854;-84
2022/09/14 08:02:29;;;;;;;;;;;;;;;23.88;36.59;100687.54;103502;1309;63735;-82
2022/09/14 08:04:55;;;;;;;;;;;;;;;23.89;36.67;100683.65;103562;1308;61420;-83
2022/09/14 08:07:22;;;;;;;;;;;;;;;23.88;36.68;100678.01;103707;1308;61402;-83
2022/09/14 08:09:47;;;;;;;;;;;;;;;23.90;36.81;100675.77;103660;1308;61323;-83
2022/09/14 08:12:15;;;;;;;;;;;;;;;23.94;36.84;100670.35;103618;1308;61465;-85
2022/09/14 08:14:41;;;;;;;;;;;;;;;23.98;36.99;100664.40;103527;1308;61398;-82
2022/09/14 08:17:09;;;;;;;;;;;;;;;24.00;36.85;100659.56;103511;1307;61637;-83
2022/09/14 08:19:35;;;;;;;;;;;;;;;24.02;36.90;100655.14;105216;1308;59288;-82
2022/09/14 08:22:02;;;;;;;;;;;;;;;24.02;36.84;100652.55;105241;1308;59243;-83
2022/09/14 08:24:27;;;;;;;;;;;;;;;24.05;36.70;100646.77;105260;1306;59018;-83
2022/09/14 08:26:53;;;;;;;;;;;;;;;24.03;36.79;100646.00;105179;1309;59158;-84
2022/09/14 08:29:19;;;;;;;;;;;;;;;24.00;36.70;100645.24;105348;1308;59318;-83
2022/09/14 08:31:45;;;;;;;;;;;;;;;23.84;36.70;100651.02;105266;1308;59741;-82
2022/09/14 08:34:12;;;;;;;;;;;;;;;23.84;36.80;100654.27;105366;1308;60022;-82
2022/09/14 08:36:38;;;;;;;;;;;;;;;23.88;36.83;100654.63;104663;1308;61364;-83
2022/09/14 08:39:05;;;;;;;;;;;;;;;23.94;36.90;100647.70;103916;1309;61307;-83
2022/09/14 08:41:38;;;;;;;;;;;;;;;24.01;36.82;100642.42;103730;1309;61199;-82
2022/09/14 08:44:05;;;;;;;;;;;;;;;24.07;36.86;100649.06;103800;1308;61020;-83
2022/09/14 08:46:35;;;;;;;;;;;;;;;24.10;36.75;100647.59;104224;1309;61186;-82
2022/09/14 08:49:01;;;;;;;;;;;;;;;24.09;36.69;100646.91;104439;1309;73803;-82
2022/09/14 08:51:27;;;;;;;;;;;;;;;24.13;36.71;100643.78;104686;1309;62196;-82
2022/09/14 08:53:52;;;;;;;;;;;;;;;24.15;36.69;100632.27;104406;1308;59494;-82
2022/09/14 08:56:20;;;;;;;;;;;;;;;24.13;36.69;100637.67;104285;1308;61315;-83
2022/09/14 08:58:49;;;;;;;;;;;;;;;24.16;36.73;100636.87;104328;1309;61208;-84
2022/09/14 09:01:27;;;;;;;;;;;;;;;24.18;36.67;100632.58;104490;1308;76062;-82
2022/09/14 09:03:59;;;;;;;;;;;;;;;24.21;36.86;100631.19;104489;1308;61164;-83
2022/09/14 09:06:24;;;;;;;;;;;;;;;24.25;37.13;100634.95;104386;1308;62333;-84
2022/09/14 09:09:00;;;;;;;;;;;;;;;24.30;37.02;100635.13;104336;1307;61269;-84
2022/09/14 09:11:26;;;;;;;;;;;;;;;24.28;36.97;100628.98;103778;1309;73707;-84
2022/09/14 09:13:51;;;;;;;;;;;;;;;24.24;36.97;100627.65;105060;1309;59184;-84
2022/09/14 09:16:18;;;;;;;;;;;;;;;24.21;36.84;100621.42;104974;1308;60039;-83
2022/09/14 09:18:46;;;;;;;;;;;;;;;24.17;36.86;100621.48;104971;1308;59611;-84
2022/09/14 09:21:16;;;;;;;;;;;;;;;24.14;36.81;100626.00;104965;1308;74699;-83
2022/09/14 09:23:41;;;;;;;;;;;;;;;24.12;36.74;100627.98;105161;1308;59784;-83
2022/09/14 09:26:10;;;;;;;;;;;;;;;24.07;36.66;100624.63;104756;1307;61329;-83
2022/09/14 09:28:41;;;;;;;;;;;;;;;24.04;36.74;100628.00;104162;1308;73561;-83
2022/09/14 09:31:09;;;;;;;;;;;;;;;24.04;36.70;100626.55;103822;1308;74821;-84
2022/09/14 09:33:34;;;;;;;;;;;;;;;24.08;36.75;100626.55;103710;1311;61183;-83
2022/09/14 09:36:00;;;;;;;;;;;;;;;24.12;36.74;100621.91;103791;1309;61623;-83
2022/09/14 09:38:27;;;;;;;;;;;;;;;24.14;36.77;100623.34;103839;1309;61317;-82
2022/09/14 09:40:57;;;;;;;;;;;;;;;24.16;36.77;100622.96;104157;1309;61263;-83
2022/09/14 09:43:23;;;;;;;;;;;;;;;24.18;36.71;100625.32;103922;1308;61910;-84
2022/09/14 09:45:57;;;;;;;;;;;;;;;24.19;36.69;100628.62;103836;1309;61622;-83
2022/09/14 09:48:26;;;;;;;;;;;;;;;24.18;36.55;100627.45;104083;1308;74205;-82
2022/09/14 09:51:00;;;;;;;;;;;;;;;24.14;36.57;100625.85;103681;1309;76141;-83
2022/09/14 09:53:25;;;;;;;;;;;;;;;24.15;36.51;100628.09;103824;1309;61264;-83
2022/09/14 09:55:51;;;;;;;;;;;;;;;24.13;36.32;100623.27;103745;1308;62845;-84
2022/09/14 09:58:21;;;;;;;;;;;;;;;24.12;36.38;100618.33;103507;1308;61350;-83
2022/09/14 10:01:04;;;;;;;;;;;;;;;24.13;36.36;100613.71;102142;1308;1586770;-86
2022/09/14 10:03:36;;;;;;;;;;;;;;;24.17;36.46;100609.45;103345;1309;62056;-85
2022/09/14 10:06:06;;;;;;;;;;;;;;;24.20;36.50;100609.89;103434;1308;61123;-82
2022/09/14 10:08:33;;;;;;;;;;;;;;;24.20;36.32;100612.02;103555;1308;72742;-83
2022/09/14 10:11:01;;;;;;;;;;;;;;;24.21;36.34;100609.97;103676;1309;74800;-83
2022/09/14 10:13:29;;;;;;;;;;;;;;;24.23;36.36;100607.05;103612;1308;61377;-85
2022/09/14 10:16:06;;;;;;;;;;;;;;;24.25;36.33;100600.54;103624;1308;60317;-82
2022/09/14 10:18:31;;;;;;;;;;;;;;;24.29;36.31;100595.56;103545;1309;75086;-83
2022/09/14 10:20:57;;;;;;;;;;;;;;;24.32;36.28;100593.21;103572;1309;61330;-83
2022/09/14 10:23:23;;;;;;;;;;;;;;;24.32;36.13;100590.27;103772;1308;61242;-83
2022/09/14 10:26:09;;;;;;;;;;;;;;;24.34;36.13;100590.49;103711;1308;61213;-82
2022/09/14 10:28:34;;;;;;;;;;;;;;;24.36;36.14;100578.92;103929;1308;72766;-84
2022/09/14 10:31:01;;;;;;;;;;;;;;;24.38;36.04;100576.29;103577;1308;61324;-83
2022/09/14 10:33:28;;;;;;;;;;;;;;;24.37;35.91;100572.39;103796;1308;61453;-82
2022/09/14 10:36:12;;;;;;;;;;;;;;;24.37;35.85;100575.29;103854;1308;61317;-84
2022/09/14 10:38:38;;;;;;;;;;;;;;;24.37;35.78;100575.86;103925;1308;72929;-84
2022/09/14 10:41:08;;;;;;;;;;;;;;;24.38;35.81;100573.54;104031;1308;61424;-82
2022/09/14 10:44:10;;;;;;;;;;;;;;;24.40;35.79;100572.48;104921;1311;61323;-82
2022/09/14 10:46:42;;;;;;;;;;;;;;;24.41;35.66;100578.32;103917;1314;61342;-84
2022/09/14 10:49:31;;;;;;;;;;;;;;;24.43;35.74;100579.45;103729;1309;72251;-83
2022/09/14 10:52:00;;;;;;;;;;;;;;;24.43;35.61;100577.42;103763;1308;75862;-83
2022/09/14 10:54:45;;;;;;;;;;;;;;;24.44;35.59;100570.88;105208;1309;62493;-84
2022/09/14 10:57:26;;;;;;;;;;;;;;;24.46;35.61;100565.89;105399;1308;63181;-83
2022/09/14 10:59:55;;;;;;;;;;;;;;;24.47;35.56;100557.34;105320;1308;72634;-83
2022/09/14 11:02:39;;;;;;;;;;;;;;;24.47;35.54;100555.09;105338;1309;66231;-83
2022/09/14 11:05:18;;;;;;;;;;;;;;;24.49;35.54;100557.13;105381;1309;59532;-82
2022/09/14 11:07:50;;;;;;;;;;;;;;;24.50;35.41;100554.20;105526;1308;61527;-83
2022/09/14 11:10:15;;;;;;;;;;;;;;;24.51;35.37;100548.55;105563;1306;72652;-83
2022/09/14 11:12:43;;;;;;;;;;;;;;;24.51;35.38;100547.06;105563;1308;59651;-83
2022/09/14 11:15:21;;;;;;;;;;;;;;;24.52;35.28;100543.38;104738;1309;61269;-82
2022/09/14 11:17:49;;;;;;;;;;;;;;;24.51;35.11;100537.29;104078;1308;61157;-83
2022/09/14 11:20:25;;;;;;;;;;;;;;;24.51;34.98;100533.21;104092;1308;73853;-82
2022/09/14 11:23:06;;;;;;;;;;;;;;;24.50;34.98;100533.52;104249;1308;76655;-83
2022/09/14 11:25:36;;;;;;;;;;;;;;;24.49;34.74;100527.27;104020;1309;61364;-82
2022/09/14 11:28:05;;;;;;;;;;;;;;;24.47;34.63;100522.44;103829;1309;61298;-83
2022/09/14 11:30:36;;;;;;;;;;;;;;;24.46;34.66;100509.73;104095;1308;73785;-83
2022/09/14 11:33:22;;;;;;;;;;;;;;;24.47;34.62;100502.79;104056;1308;74948;-83
2022/09/14 11:36:12;;;;;;;;;;;;;;;24.48;34.56;100501.79;104131;1311;61435;-82
2022/09/14 11:38:42;;;;;;;;;;;;;;;24.48;34.46;100496.77;104194;1306;61258;-82
2022/09/14 11:41:22;;;;;;;;;;;;;;;24.49;34.56;100496.50;104220;1309;75005;-83
2022/09/14 11:43:56;;;;;;;;;;;;;;;24.50;34.58;100498.54;104295;1309;75046;-82
2022/09/14 11:46:24;;;;;;;;;;;;;;;24.52;34.41;100495.15;104120;1309;61751;-82
2022/09/14 11:48:53;;;;;;;;;;;;;;;24.52;34.32;100493.67;104037;1309;61227;-82
2022/09/14 11:51:23;;;;;;;;;;;;;;;24.53;34.30;100488.62;103924;1308;73901;-82
2022/09/14 11:53:49;;;;;;;;;;;;;;;24.53;34.24;100496.15;103837;1308;75668;-83
2022/09/14 11:56:25;;;;;;;;;;;;;;;24.54;34.26;100499.64;103672;1309;61288;-82
2022/09/14 11:58:56;;;;;;;;;;;;;;;24.54;34.25;100498.36;103886;1308;61166;-82
2022/09/14 12:01:37;;;;;;;;;;;;;;;24.56;34.15;100491.95;105283;1308;73840;-83
2022/09/14 12:04:04;;;;;;;;;;;;;;;24.57;34.29;100496.45;105426;1307;75679;-84
2022/09/14 12:06:29;;;;;;;;;;;;;;;24.59;34.30;100498.48;105297;1309;59097;-84
2022/09/14 12:09:25;;;;;;;;;;;;;;;24.60;34.43;100495.27;104691;1307;61307;-84
2022/09/14 12:11:53;;;;;;;;;;;;;;;24.63;34.43;100493.63;103874;1308;72958;-83
2022/09/14 12:14:29;;;;;;;;;;;;;;;24.65;34.67;100487.36;104373;1308;74975;-82
2022/09/14 12:17:05;;;;;;;;;;;;;;;24.66;34.63;100486.93;104395;1308;61378;-84
2022/09/14 12:19:30;;;;;;;;;;;;;;;24.67;34.54;100483.77;104354;1309;61187;-84
2022/09/14 12:22:07;;;;;;;;;;;;;;;24.67;34.64;100484.35;104921;1307;61280;-84
2022/09/14 12:24:32;;;;;;;;;;;;;;;24.67;34.58;100477.65;104122;1308;73906;-84
2022/09/14 12:26:57;;;;;;;;;;;;;;;24.67;34.59;100474.95;104305;1309;61371;-84
2022/09/14 12:29:28;;;;;;;;;;;;;;;24.67;34.74;100475.34;104265;1309;61310;-84
2022/09/14 12:31:53;;;;;;;;;;;;;;;24.67;34.65;100474.44;104298;1309;73944;-84
2022/09/14 12:34:19;;;;;;;;;;;;;;;24.67;34.61;100477.13;104415;1308;61314;-83